Forest fire From: 18-06-2018 08:00 Until: 19-06-2018 06:14 warning for: Forest fire Level: Yellow info button
suomi:
Metsäpalovaroitus on voimassa.

svenska:
Varning för skogsbrand gäller.

english:
A forest fire warning is in force. 


Thunder radar more information blitzortung!


Löydät sääaseman tiedot myös:

European Weather Network

Finland Weather Exchange

Weather Underground

AWEKAS



Weather Underground säähistoriasivu

Päivittäin yhteenveto Maaliskuu 6, 2017 Yksiköt:  Molemmat    Englantilaiset   Metriset
« Edellinen Päivä
Seuraava Päivä »
Päivittäin Viikoittain Kuukausittain Vuosittain Mukautettu
  Korkea: Matala: Keskiarvo:
Lämpötila: TemperatureC °F /  -17.8 °C -14.6 °F /  -25.9 °C -9.3 °F /  -22.9 °C
Kastepiste: DewpointC °F /  -17.8 °C -16.0 °F /  -26.7 °C -10.8 °F /  -23.8 °C
Kosteus: Humidity % 79 % 88 %
Tuulen nopeus: WindSpeedKMH mph /  0 km/h - 0 mph /  0 km/h
Tuulenpuuska: WindSpeedGustKMH mph /  0 km/h - -
Tuuli:- - North
Ilmanpaine: PressurehPa in /  0 hPa 1019.9 in /  34533.8 hPa -
Sade: 0.0 in /  0 mm    
Historical Graphs
 
 
Taulukkotiedot Maaliskuu 6, 2017
Aika Lämpötila Kastepiste Ilmanpaine Tuuli Tuulen nopeus Tuulenpuuska Kosteus Sademäärä (tunneittain)
TemperatureC °F /  -17.8 °C DewpointC °F /  -17.8 °C PressurehPa in /  0 hPa Calm     Humidity % HourlyPrecipMM in /  0 mm
00:00 -10.4 °F /  -23.6 °C -11.4 °F /  -24.1 °C 1019.9 in /  34533.8 hPa Calm     92 % 0.0 in /  0 mm
00:15 -10.4 °F /  -23.6 °C -11.5 °F /  -24.2 °C 1019.9 in /  34533.8 hPa Calm     92 % 0.0 in /  0 mm
00:30 -10.6 °F /  -23.7 °C -11.7 °F /  -24.3 °C 1019.9 in /  34533.8 hPa Calm     92 % 0.0 in /  0 mm
00:45 -10.8 °F /  -23.8 °C -12.0 °F /  -24.4 °C 1020.2 in /  34544 hPa Calm     91 % 0.0 in /  0 mm
01:00 -11.1 °F /  -23.9 °C -12.3 °F /  -24.6 °C 1020.2 in /  34544 hPa Calm     91 % 0.0 in /  0 mm
01:15 -11.3 °F /  -24.1 °C -12.5 °F /  -24.7 °C 1020.5 in /  34554.1 hPa Calm     91 % 0.0 in /  0 mm
01:30 -11.6 °F /  -24.2 °C -12.8 °F /  -24.9 °C 1020.5 in /  34554.1 hPa Calm     91 % 0.0 in /  0 mm
01:45 -11.9 °F /  -24.4 °C -13.3 °F /  -25.2 °C 1020.9 in /  34567.7 hPa Calm     90 % 0.0 in /  0 mm
02:00 -12.2 °F /  -24.6 °C -13.3 °F /  -25.2 °C 1020.9 in /  34567.7 hPa Calm     91 % 0.0 in /  0 mm
02:15 -12.3 °F /  -24.6 °C -13.4 °F /  -25.2 °C 1020.9 in /  34567.7 hPa Calm     91 % 0.0 in /  0 mm
02:30 -12.6 °F /  -24.8 °C -13.7 °F /  -25.4 °C 1020.9 in /  34567.7 hPa Calm     91 % 0.0 in /  0 mm
02:45 -12.7 °F /  -24.8 °C -14.0 °F /  -25.6 °C 1020.9 in /  34567.7 hPa Calm     90 % 0.0 in /  0 mm
03:00 -13.0 °F /  -25 °C -14.3 °F /  -25.7 °C 1020.9 in /  34567.7 hPa Calm     90 % 0.0 in /  0 mm
03:15 -13.2 °F /  -25.1 °C -14.5 °F /  -25.8 °C 1020.9 in /  34567.7 hPa Calm     90 % 0.0 in /  0 mm
03:30 -13.1 °F /  -25.1 °C -14.3 °F /  -25.7 °C 1021.2 in /  34577.8 hPa Calm     91 % 0.0 in /  0 mm
03:45 -13.1 °F /  -25.1 °C -14.3 °F /  -25.7 °C 1021.6 in /  34591.4 hPa Calm     91 % 0.0 in /  0 mm
04:00 -13.0 °F /  -25 °C -14.2 °F /  -25.7 °C 1021.6 in /  34591.4 hPa Calm     91 % 0.0 in /  0 mm
04:15 -13.1 °F /  -25.1 °C -14.2 °F /  -25.7 °C 1021.6 in /  34591.4 hPa Calm     91 % 0.0 in /  0 mm
04:30 -13.2 °F /  -25.1 °C -14.5 °F /  -25.8 °C 1021.6 in /  34591.4 hPa Calm     90 % 0.0 in /  0 mm
04:45 -13.2 °F /  -25.1 °C -14.5 °F /  -25.8 °C 1021.6 in /  34591.4 hPa Calm     90 % 0.0 in /  0 mm
05:00 -13.2 °F /  -25.1 °C -14.5 °F /  -25.8 °C 1021.9 in /  34601.5 hPa Calm     90 % 0.0 in /  0 mm
05:15 -13.3 °F /  -25.2 °C -14.6 °F /  -25.9 °C 1021.9 in /  34601.5 hPa Calm     90 % 0.0 in /  0 mm
05:30 -13.5 °F /  -25.3 °C -14.8 °F /  -26 °C 1021.9 in /  34601.5 hPa Calm     90 % 0.0 in /  0 mm
05:45 -13.6 °F /  -25.3 °C -14.9 °F /  -26.1 °C 1022.2 in /  34611.7 hPa Calm     90 % 0.0 in /  0 mm
06:00 -13.7 °F /  -25.4 °C -15.0 °F /  -26.1 °C 1022.2 in /  34611.7 hPa Calm     90 % 0.0 in /  0 mm
06:15 -13.7 °F /  -25.4 °C -15.0 °F /  -26.1 °C 1022.6 in /  34625.2 hPa Calm     90 % 0.0 in /  0 mm
06:30 -13.8 °F /  -25.4 °C -15.1 °F /  -26.2 °C 1022.6 in /  34625.2 hPa Calm     90 % 0.0 in /  0 mm
06:45 -14.0 °F /  -25.6 °C -15.3 °F /  -26.3 °C 1022.9 in /  34635.4 hPa Calm     90 % 0.0 in /  0 mm
07:00 -14.1 °F /  -25.6 °C -15.4 °F /  -26.3 °C 1022.9 in /  34635.4 hPa Calm     90 % 0.0 in /  0 mm
07:15 -14.3 °F /  -25.7 °C -15.7 °F /  -26.5 °C 1023.2 in /  34645.6 hPa Calm     89 % 0.0 in /  0 mm
07:30 -14.5 °F /  -25.8 °C -15.8 °F /  -26.6 °C 1023.2 in /  34645.6 hPa Calm     90 % 0.0 in /  0 mm
07:45 -14.6 °F /  -25.9 °C -16.0 °F /  -26.7 °C 1023.6 in /  34659.1 hPa Calm     89 % 0.0 in /  0 mm
08:00 -14.6 °F /  -25.9 °C -15.9 °F /  -26.6 °C 1023.6 in /  34659.1 hPa Calm     90 % 0.0 in /  0 mm
08:15 -14.6 °F /  -25.9 °C -15.9 °F /  -26.6 °C 1023.6 in /  34659.1 hPa Calm     90 % 0.0 in /  0 mm
08:30 -14.6 °F /  -25.9 °C -15.9 °F /  -26.6 °C 1023.9 in /  34669.3 hPa Calm     90 % 0.0 in /  0 mm
08:45 -14.2 °F /  -25.7 °C -15.3 °F /  -26.3 °C 1023.9 in /  34669.3 hPa Calm     91 % 0.0 in /  0 mm
09:00 -13.8 °F /  -25.4 °C -14.9 °F /  -26.1 °C 1023.9 in /  34669.3 hPa Calm     91 % 0.0 in /  0 mm
09:15 -13.3 °F /  -25.2 °C -14.3 °F /  -25.7 °C 1023.9 in /  34669.3 hPa Calm     92 % 0.0 in /  0 mm
09:30 -12.8 °F /  -24.9 °C -13.8 °F /  -25.4 °C 1024.3 in /  34682.8 hPa Calm     92 % 0.0 in /  0 mm
09:45 -12.3 °F /  -24.6 °C -13.4 °F /  -25.2 °C 1024.3 in /  34682.8 hPa Calm     92 % 0.0 in /  0 mm
10:00 -11.8 °F /  -24.3 °C -12.8 °F /  -24.9 °C 1024.3 in /  34682.8 hPa Calm     92 % 0.0 in /  0 mm
10:15 -11.2 °F /  -24 °C -12.1 °F /  -24.5 °C 1024.3 in /  34682.8 hPa Calm     93 % 0.0 in /  0 mm
10:30 -10.6 °F /  -23.7 °C -11.5 °F /  -24.2 °C 1024.6 in /  34693 hPa Calm     93 % 0.0 in /  0 mm
10:45 -9.9 °F /  -23.3 °C -10.7 °F /  -23.7 °C 1024.6 in /  34693 hPa Calm   1.6 mph /  2.6 km/h 94 % 0.0 in /  0 mm
11:00 -9.1 °F /  -22.8 °C -10.0 °F /  -23.3 °C 1024.6 in /  34693 hPa Calm     93 % 0.0 in /  0 mm
11:15 -8.5 °F /  -22.5 °C -9.4 °F /  -23 °C 1024.6 in /  34693 hPa Calm     93 % 0.0 in /  0 mm
11:30 -7.8 °F /  -22.1 °C -8.9 °F /  -22.7 °C 1024.6 in /  34693 hPa Calm     92 % 0.0 in /  0 mm
11:45 -7.4 °F /  -21.9 °C -8.6 °F /  -22.6 °C 1024.9 in /  34703.1 hPa Calm     91 % 0.0 in /  0 mm
12:00 -7.1 °F /  -21.7 °C -8.3 °F /  -22.4 °C 1024.9 in /  34703.1 hPa Calm   3.2 mph /  5.1 km/h 91 % 0.0 in /  0 mm
12:15 -6.5 °F /  -21.4 °C -7.9 °F /  -22.2 °C 1024.9 in /  34703.1 hPa Calm     90 % 0.0 in /  0 mm
12:30 -6.1 °F /  -21.2 °C -7.6 °F /  -22 °C 1024.9 in /  34703.1 hPa Calm   1.6 mph /  2.6 km/h 89 % 0.0 in /  0 mm
12:45 -5.9 °F /  -21.1 °C -7.4 °F /  -21.9 °C 1024.9 in /  34703.1 hPa Calm   3.2 mph /  5.1 km/h 89 % 0.0 in /  0 mm
13:00 -5.7 °F /  -20.9 °C -7.4 °F /  -21.9 °C 1024.9 in /  34703.1 hPa Calm   3.2 mph /  5.1 km/h 88 % 0.0 in /  0 mm
13:15 -5.5 °F /  -20.8 °C -7.2 °F /  -21.8 °C 1024.9 in /  34703.1 hPa Calm   3.2 mph /  5.1 km/h 88 % 0.0 in /  0 mm
13:30 -5.0 °F /  -20.6 °C -6.8 °F /  -21.6 °C 1024.9 in /  34703.1 hPa Calm   1.6 mph /  2.6 km/h 87 % 0.0 in /  0 mm
13:45 -4.7 °F /  -20.4 °C -6.7 °F /  -21.5 °C 1024.9 in /  34703.1 hPa Calm   3.2 mph /  5.1 km/h 86 % 0.0 in /  0 mm
14:00 -4.3 °F /  -20.2 °C -6.5 °F /  -21.4 °C 1024.9 in /  34703.1 hPa Calm   3.2 mph /  5.1 km/h 85 % 0.0 in /  0 mm
14:15 -4.2 °F /  -20.1 °C -6.3 °F /  -21.3 °C 1024.9 in /  34703.1 hPa Calm   3.2 mph /  5.1 km/h 85 % 0.0 in /  0 mm
14:30 -3.9 °F /  -19.9 °C -6.2 °F /  -21.2 °C 1024.9 in /  34703.1 hPa Calm   3.2 mph /  5.1 km/h 84 % 0.0 in /  0 mm
14:45 -3.7 °F /  -19.8 °C -6.1 °F /  -21.2 °C 1024.9 in /  34703.1 hPa Calm   3.2 mph /  5.1 km/h 83 % 0.0 in /  0 mm
15:00 -3.3 °F /  -19.6 °C -5.8 °F /  -21 °C 1024.9 in /  34703.1 hPa Calm   3.2 mph /  5.1 km/h 83 % 0.0 in /  0 mm
15:15 -3.0 °F /  -19.4 °C -5.8 °F /  -21 °C 1024.9 in /  34703.1 hPa Calm   3.2 mph /  5.1 km/h 81 % 0.0 in /  0 mm
15:30 -2.7 °F /  -19.3 °C -5.6 °F /  -20.9 °C 1024.9 in /  34703.1 hPa Calm   1.6 mph /  2.6 km/h 80 % 0.0 in /  0 mm
15:45 -2.3 °F /  -19.1 °C -5.4 °F /  -20.8 °C 1024.9 in /  34703.1 hPa Calm   1.6 mph /  2.6 km/h 79 % 0.0 in /  0 mm
16:00 -2.8 °F /  -19.3 °C -6.0 °F /  -21.1 °C 1024.9 in /  34703.1 hPa Calm   4.8 mph /  7.7 km/h 79 % 0.0 in /  0 mm
16:15 -3.3 °F /  -19.6 °C -6.1 °F /  -21.2 °C 1024.9 in /  34703.1 hPa Calm   3.2 mph /  5.1 km/h 81 % 0.0 in /  0 mm
16:30 -3.7 °F /  -19.8 °C -6.3 °F /  -21.3 °C 1024.9 in /  34703.1 hPa Calm   1.6 mph /  2.6 km/h 82 % 0.0 in /  0 mm
16:45 -4.2 °F /  -20.1 °C -6.5 °F /  -21.4 °C 1024.9 in /  34703.1 hPa Calm   1.6 mph /  2.6 km/h 84 % 0.0 in /  0 mm
17:00 -4.5 °F /  -20.3 °C -6.6 °F /  -21.4 °C 1024.9 in /  34703.1 hPa Calm   1.6 mph /  2.6 km/h 85 % 0.0 in /  0 mm
17:15 -4.7 °F /  -20.4 °C -6.9 °F /  -21.6 °C 1025.3 in /  34716.7 hPa Calm     85 % 0.0 in /  0 mm
17:30 -4.9 °F /  -20.5 °C -6.9 °F /  -21.6 °C 1025.3 in /  34716.7 hPa Calm     86 % 0.0 in /  0 mm
17:45 -5.2 °F /  -20.7 °C -7.2 °F /  -21.8 °C 1025.3 in /  34716.7 hPa Calm     86 % 0.0 in /  0 mm
18:00 -5.5 °F /  -20.8 °C -7.5 °F /  -21.9 °C 1025.3 in /  34716.7 hPa Calm     86 % 0.0 in /  0 mm
18:15 -5.8 °F /  -21 °C -7.6 °F /  -22 °C 1025.3 in /  34716.7 hPa Calm     87 % 0.0 in /  0 mm
18:30 -6.1 °F /  -21.2 °C -7.9 °F /  -22.2 °C 1025.3 in /  34716.7 hPa Calm     87 % 0.0 in /  0 mm
18:45 -6.3 °F /  -21.3 °C -8.0 °F /  -22.2 °C 1025.3 in /  34716.7 hPa Calm     88 % 0.0 in /  0 mm
19:00 -6.6 °F /  -21.4 °C -8.3 °F /  -22.4 °C 1025.6 in /  34726.8 hPa Calm     88 % 0.0 in /  0 mm
19:15 -6.9 °F /  -21.6 °C -8.4 °F /  -22.4 °C 1025.6 in /  34726.8 hPa Calm     89 % 0.0 in /  0 mm
19:30 -7.2 °F /  -21.8 °C -8.7 °F /  -22.6 °C 1026.0 in /  34740.4 hPa Calm     89 % 0.0 in /  0 mm
19:45 -7.3 °F /  -21.8 °C -8.7 °F /  -22.6 °C 1026.0 in /  34740.4 hPa Calm     90 % 0.0 in /  0 mm
20:00 -7.4 °F /  -21.9 °C -8.8 °F /  -22.7 °C 1026.3 in /  34750.5 hPa Calm     90 % 0.0 in /  0 mm
20:15 -7.6 °F /  -22 °C -9.0 °F /  -22.8 °C 1026.3 in /  34750.5 hPa Calm     90 % 0.0 in /  0 mm
20:30 -7.8 °F /  -22.1 °C -9.1 °F /  -22.8 °C 1026.3 in /  34750.5 hPa Calm   3.2 mph /  5.1 km/h 90 % 0.0 in /  0 mm
20:45 -8.3 °F /  -22.4 °C -9.7 °F /  -23.2 °C 1026.3 in /  34750.5 hPa Calm     90 % 0.0 in /  0 mm
21:00 -8.7 °F /  -22.6 °C -9.9 °F /  -23.3 °C 1026.3 in /  34750.5 hPa Calm     91 % 0.0 in /  0 mm
21:15 -9.1 °F /  -22.8 °C -10.3 °F /  -23.5 °C 1026.6 in /  34760.7 hPa Calm     91 % 0.0 in /  0 mm
21:30 -9.4 °F /  -23 °C -10.4 °F /  -23.6 °C 1026.6 in /  34760.7 hPa Calm   1.6 mph /  2.6 km/h 92 % 0.0 in /  0 mm
21:45 -9.7 °F /  -23.2 °C -10.9 °F /  -23.8 °C 1026.6 in /  34760.7 hPa Calm   3.2 mph /  5.1 km/h 91 % 0.0 in /  0 mm
22:00 -10.0 °F /  -23.3 °C -11.2 °F /  -24 °C 1027.0 in /  34774.2 hPa Calm     91 % 0.0 in /  0 mm
22:15 -9.9 °F /  -23.3 °C -11.0 °F /  -23.9 °C 1027.0 in /  34774.2 hPa Calm   3.2 mph /  5.1 km/h 92 % 0.0 in /  0 mm
22:30 -10.0 °F /  -23.3 °C -11.1 °F /  -23.9 °C 1027.0 in /  34774.2 hPa Calm     92 % 0.0 in /  0 mm
22:45 -9.9 °F /  -23.3 °C -10.8 °F /  -23.8 °C 1027.3 in /  34784.4 hPa Calm     93 % 0.0 in /  0 mm
23:00 -10.2 °F /  -23.4 °C -11.4 °F /  -24.1 °C 1027.3 in /  34784.4 hPa Calm     91 % 0.0 in /  0 mm
23:15 -10.6 °F /  -23.7 °C -11.8 °F /  -24.3 °C 1027.0 in /  34774.2 hPa Calm     91 % 0.0 in /  0 mm
23:30 -10.9 °F /  -23.8 °C -12.1 °F /  -24.5 °C 1027.3 in /  34784.4 hPa Calm   1.6 mph /  2.6 km/h 91 % 0.0 in /  0 mm
23:45 -10.7 °F /  -23.7 °C -11.8 °F /  -24.3 °C 1027.3 in /  34784.4 hPa Calm     92 % 0.0 in /  0 mm
Esan sääasema
Terveisin Weather Underground - 2.75 mb

Alkuperäinen skripti  Jim McMurry - jmcmurry@mwt.net Sovitettu myös templatelle  Wim van der Kuil - Leuven-Template.eu

Laitteet joita käytämme:

Sääasema
Davis VP2

Sääasemaohjelma
Cumulus

Sääaseman tietokone
Asus EeePC

Palveluntarjoaja
Suncomet

Davis VP2

Cumulus

Asus EeePC

Suncomet